Time;durP1;ratioP1;P1;durP2;ratioP2;P2;SDS_P1;SDS_P2;PMS_P1;PMS_P2;Temp;Humidity;BMP_temperature;BMP_pressure;BME280_temperature;BME280_humidity;BME280_pressure;Samples;Min_cycle;Max_cycle;Signal;HPM_P1;HPM_P2
2023/04/28 00:00:46;;;;;;;9.43;5.55;;;5.40;99.90;;;;;;5094547;28;20072;-80
2023/04/28 00:03:15;;;;;;;9.55;5.28;;;5.30;99.90;;;;;;5094530;28;20089;-80
2023/04/28 00:05:40;;;;;;;9.70;5.35;;;5.30;99.90;;;;;;5094466;28;20051;-80
2023/04/28 00:08:06;;;;;;;12.43;6.18;;;5.20;99.90;;;;;;5092950;28;20036;-80
2023/04/28 00:10:33;;;;;;;10.48;5.18;;;5.20;99.90;;;;;;5094424;28;20040;-80
2023/04/28 00:12:58;;;;;;;10.32;5.65;;;5.20;99.90;;;;;;5093964;28;20084;-80
2023/04/28 00:15:24;;;;;;;12.18;5.90;;;5.10;99.90;;;;;;5094046;28;20044;-80
2023/04/28 00:17:50;;;;;;;10.18;5.95;;;5.10;99.90;;;;;;5094287;28;20522;-81
2023/04/28 00:20:15;;;;;;;9.43;6.05;;;5.00;99.90;;;;;;5093942;28;20044;-80
2023/04/28 00:22:41;;;;;;;10.25;5.55;;;5.00;99.90;;;;;;5094000;28;20117;-80
2023/04/28 00:25:07;;;;;;;10.35;6.05;;;5.00;99.90;;;;;;5093095;28;20157;-81
2023/04/28 00:27:34;;;;;;;10.95;6.30;;;5.00;99.90;;;;;;5093802;28;20146;-80
2023/04/28 00:30:00;;;;;;;11.95;6.10;;;5.00;99.90;;;;;;5094031;28;20040;-80
2023/04/28 00:32:25;;;;;;;13.68;6.57;;;4.90;99.90;;;;;;5092529;28;20056;-81
2023/04/28 00:34:52;;;;;;;10.88;6.30;;;4.90;99.90;;;;;;5092880;28;20118;-81
2023/04/28 00:37:18;;;;;;;12.40;6.50;;;4.90;99.90;;;;;;5093828;28;20115;-81
2023/04/28 00:39:47;;;;;;;13.40;6.43;;;4.90;99.90;;;;;;5093921;28;20039;-81
2023/04/28 00:42:15;;;;;;;11.18;5.82;;;4.90;99.90;;;;;;5093681;28;20073;-81
2023/04/28 00:44:41;;;;;;;10.95;6.40;;;4.90;99.90;;;;;;5093774;28;20074;-81
2023/04/28 00:47:09;;;;;;;14.45;6.70;;;4.80;99.90;;;;;;5093768;28;20076;-81
2023/04/28 00:49:36;;;;;;;11.50;6.72;;;4.80;99.90;;;;;;5092591;28;20131;-80
2023/04/28 00:52:05;;;;;;;14.57;6.78;;;4.80;99.90;;;;;;5093664;28;20036;-80
2023/04/28 00:54:32;;;;;;;14.07;7.07;;;4.80;99.90;;;;;;5093677;28;20043;-81
2023/04/28 00:56:58;;;;;;;10.63;6.53;;;4.80;99.90;;;;;;5093723;28;20071;-81
2023/04/28 00:59:24;;;;;;;16.75;7.35;;;4.80;99.90;;;;;;5093658;28;20482;-81
2023/04/28 01:01:49;;;;;;;15.05;7.28;;;4.80;99.90;;;;;;5093660;28;20040;-80
2023/04/28 01:04:19;;;;;;;12.20;6.93;;;4.70;99.90;;;;;;5096467;28;20036;-81
2023/04/28 01:06:46;;;;;;;14.60;7.07;;;4.70;99.90;;;;;;5097844;28;20039;-81
2023/04/28 01:09:11;;;;;;;13.65;6.65;;;4.80;99.90;;;;;;5097813;28;20590;-81
2023/04/28 01:11:37;;;;;;;12.55;7.00;;;4.70;99.90;;;;;;5096283;28;20089;-81
2023/04/28 01:14:03;;;;;;;16.67;7.03;;;4.70;99.90;;;;;;5098105;28;20044;-81
2023/04/28 01:16:31;;;;;;;14.45;7.38;;;4.80;99.90;;;;;;5097600;28;20051;-81
2023/04/28 01:18:59;;;;;;;13.05;7.10;;;4.70;99.90;;;;;;5097672;28;20048;-81
2023/04/28 01:21:29;;;;;;;10.52;6.30;;;4.70;99.90;;;;;;5097553;28;20123;-81
2023/04/28 01:23:56;;;;;;;14.88;7.68;;;4.70;99.90;;;;;;5095937;28;20492;-81
2023/04/28 01:26:22;;;;;;;12.57;6.65;;;4.70;99.90;;;;;;5097508;28;20055;-81
2023/04/28 01:28:48;;;;;;;12.55;7.55;;;4.70;99.90;;;;;;5097402;28;20079;-80
2023/04/28 01:31:13;;;;;;;15.32;8.65;;;4.70;99.90;;;;;;5097332;28;20040;-81
2023/04/28 01:33:39;;;;;;;14.27;7.30;;;4.80;99.90;;;;;;5097295;28;20523;-81
2023/04/28 01:36:05;;;;;;;16.40;7.45;;;4.80;99.90;;;;;;5095981;28;20125;-80
2023/04/28 01:38:30;;;;;;;14.45;7.18;;;4.80;99.90;;;;;;5097288;28;20051;-80
2023/04/28 01:40:57;;;;;;;12.70;7.32;;;4.80;99.90;;;;;;5097001;28;20128;-81
2023/04/28 01:43:23;;;;;;;13.52;7.90;;;4.80;99.90;;;;;;5096242;28;20051;-81
2023/04/28 01:45:48;;;;;;;14.38;7.32;;;4.80;99.90;;;;;;5097138;28;20043;-81
2023/04/28 01:48:14;;;;;;;13.13;6.88;;;4.80;99.90;;;;;;5097069;28;20040;-80
2023/04/28 01:50:39;;;;;;;12.88;6.65;;;4.80;99.90;;;;;;5096920;28;20352;-80
2023/04/28 01:53:05;;;;;;;15.50;7.32;;;4.80;99.90;;;;;;5096683;28;20039;-81
2023/04/28 01:55:31;;;;;;;12.13;6.68;;;4.80;99.90;;;;;;5096937;28;20040;-80
2023/04/28 01:57:59;;;;;;;14.02;6.35;;;4.90;99.90;;;;;;5095676;28;20048;-81
2023/04/28 02:00:26;;;;;;;12.60;7.20;;;4.90;99.90;;;;;;5096888;28;20046;-81
2023/04/28 02:02:51;;;;;;;11.85;6.78;;;4.90;99.90;;;;;;5096826;28;20055;-80
2023/04/28 02:05:17;;;;;;;14.00;6.78;;;5.00;99.90;;;;;;5095714;28;20062;-80
2023/04/28 02:07:43;;;;;;;12.60;6.82;;;5.00;99.90;;;;;;5096756;28;20494;-81
2023/04/28 02:10:09;;;;;;;14.00;6.93;;;5.00;99.90;;;;;;5097005;28;20043;-81
2023/04/28 02:12:34;;;;;;;14.68;6.75;;;5.00;99.90;;;;;;5096400;28;20051;-81
2023/04/28 02:15:00;;;;;;;11.07;6.20;;;5.00;99.90;;;;;;5096265;28;20039;-80
2023/04/28 02:17:29;;;;;;;13.93;7.15;;;5.10;99.90;;;;;;5096557;28;20449;-80
2023/04/28 02:19:55;;;;;;;13.60;7.38;;;5.10;99.90;;;;;;5095380;28;20040;-81
2023/04/28 02:22:21;;;;;;;12.50;6.97;;;5.10;99.90;;;;;;5096387;28;20040;-81
2023/04/28 02:24:48;;;;;;;13.98;7.25;;;5.10;99.90;;;;;;5096115;28;20044;-82
2023/04/28 02:27:16;;;;;;;13.52;7.90;;;5.10;99.90;;;;;;5096352;28;20135;-81
2023/04/28 02:29:41;;;;;;;13.55;6.88;;;5.20;99.90;;;;;;5096245;28;20051;-81
2023/04/28 02:32:07;;;;;;;12.82;6.97;;;5.20;99.90;;;;;;5094827;28;20048;-81
2023/04/28 02:34:33;;;;;;;14.05;7.45;;;5.20;99.90;;;;;;5096149;28;20047;-81
2023/04/28 02:36:59;;;;;;;12.77;7.28;;;5.20;99.90;;;;;;5096120;28;20115;-81
2023/04/28 02:39:25;;;;;;;16.52;8.13;;;5.30;99.90;;;;;;5094642;28;20044;-81
2023/04/28 02:41:52;;;;;;;14.07;7.75;;;5.20;99.90;;;;;;5096045;28;20097;-81
2023/04/28 02:44:18;;;;;;;14.18;7.35;;;5.30;99.90;;;;;;5096003;28;20032;-81
2023/04/28 02:46:44;;;;;;;14.30;7.18;;;5.30;99.90;;;;;;5095909;28;20035;-81
2023/04/28 02:49:10;;;;;;;14.73;8.75;;;5.30;99.90;;;;;;5095662;28;20434;-81
2023/04/28 02:51:36;;;;;;;13.23;7.32;;;5.30;99.90;;;;;;5095781;28;20384;-81
2023/04/28 02:54:01;;;;;;;13.88;7.38;;;5.40;99.90;;;;;;5095734;28;20131;-81
2023/04/28 02:56:28;;;;;;;13.27;7.40;;;5.30;99.90;;;;;;5094403;28;20036;-81
2023/04/28 02:58:54;;;;;;;14.02;7.70;;;5.40;99.90;;;;;;5095794;28;20395;-81
2023/04/28 03:01:20;;;;;;;14.40;8.00;;;5.40;99.90;;;;;;5095696;28;20488;-81
2023/04/28 03:03:45;;;;;;;15.38;8.73;;;5.30;99.90;;;;;;5095531;28;20047;-80
2023/04/28 03:06:11;;;;;;;15.50;7.28;;;5.30;99.90;;;;;;5095533;28;20499;-81
2023/04/28 03:08:37;;;;;;;15.52;7.97;;;5.40;99.90;;;;;;5094184;28;20119;-81
2023/04/28 03:11:02;;;;;;;14.15;7.60;;;5.40;99.90;;;;;;5095442;28;20072;-81
2023/04/28 03:13:28;;;;;;;17.95;8.45;;;5.40;99.90;;;;;;5093912;28;20044;-81
2023/04/28 03:15:55;;;;;;;16.05;8.48;;;5.40;99.90;;;;;;5095223;28;20067;-81
2023/04/28 03:18:22;;;;;;;16.05;7.53;;;5.50;99.90;;;;;;5095351;28;20101;-81
2023/04/28 03:20:48;;;;;;;15.80;8.25;;;5.50;99.90;;;;;;5095088;28;20048;-81
2023/04/28 03:23:14;;;;;;;14.88;8.25;;;5.50;99.90;;;;;;5093888;28;20113;-81
2023/04/28 03:25:40;;;;;;;15.73;8.23;;;5.50;99.90;;;;;;5094556;28;20037;-81
2023/04/28 03:28:06;;;;;;;19.20;8.20;;;5.50;99.90;;;;;;5095164;28;20463;-81
2023/04/28 03:30:31;;;;;;;14.18;8.20;;;5.50;99.90;;;;;;5093886;28;20044;-81
2023/04/28 03:32:57;;;;;;;16.20;7.47;;;5.60;99.90;;;;;;5094919;28;20052;-81
2023/04/28 03:35:22;;;;;;;16.30;8.40;;;5.60;99.90;;;;;;5095015;28;20463;-81
2023/04/28 03:37:48;;;;;;;21.60;8.98;;;5.70;99.90;;;;;;5093660;28;20071;-81
2023/04/28 03:40:14;;;;;;;15.05;8.85;;;5.60;99.90;;;;;;5094929;28;20044;-81
2023/04/28 03:42:40;;;;;;;18.23;8.95;;;5.70;99.90;;;;;;5094918;28;20044;-81
2023/04/28 03:45:06;;;;;;;16.63;9.43;;;5.60;99.90;;;;;;5094866;28;20044;-81
2023/04/28 03:47:32;;;;;;;18.65;9.70;;;5.70;99.90;;;;;;5093522;28;20127;-81
2023/04/28 03:49:58;;;;;;;18.52;9.50;;;5.70;99.90;;;;;;5094618;28;20119;-81
2023/04/28 03:52:24;;;;;;;17.80;9.40;;;5.70;99.90;;;;;;5094554;28;20066;-81
2023/04/28 03:54:50;;;;;;;19.00;9.00;;;5.80;99.90;;;;;;5094433;28;20440;-81
2023/04/28 03:57:16;;;;;;;19.63;9.77;;;5.80;99.90;;;;;;5094515;28;20483;-81
2023/04/28 03:59:42;;;;;;;17.23;9.63;;;5.80;99.90;;;;;;5094479;28;20058;-81
2023/04/28 04:02:07;;;;;;;18.48;9.98;;;5.80;99.90;;;;;;5094437;28;20042;-82
2023/04/28 04:04:33;;;;;;;16.70;9.60;;;5.90;99.90;;;;;;5094474;28;20091;-81
2023/04/28 04:06:59;;;;;;;17.58;10.52;;;5.90;99.90;;;;;;5092717;28;20126;-81
2023/04/28 04:09:25;;;;;;;16.40;9.38;;;5.90;99.90;;;;;;5093698;28;20039;-81
2023/04/28 04:11:50;;;;;;;21.27;10.65;;;5.90;99.90;;;;;;5092169;28;20078;-81
2023/04/28 04:14:16;;;;;;;17.23;9.82;;;5.90;99.90;;;;;;5094290;28;20044;-81
2023/04/28 04:16:42;;;;;;;18.05;9.63;;;5.90;99.90;;;;;;5093993;28;20052;-81
2023/04/28 04:19:07;;;;;;;18.55;9.27;;;6.00;99.90;;;;;;5094178;28;20040;-81
2023/04/28 04:21:33;;;;;;;19.55;11.23;;;6.00;99.90;;;;;;5094135;28;20118;-81
2023/04/28 04:23:59;;;;;;;18.50;10.95;;;6.00;99.90;;;;;;5092598;28;20056;-81
2023/04/28 04:26:24;;;;;;;20.15;11.40;;;6.00;99.90;;;;;;5093903;28;20101;-81
2023/04/28 04:28:50;;;;;;;18.15;9.57;;;6.00;99.90;;;;;;5094032;28;20051;-81
2023/04/28 04:31:18;;;;;;;17.95;9.52;;;6.00;99.90;;;;;;5092457;28;20051;-80
2023/04/28 04:33:44;;;;;;;17.17;10.32;;;6.10;99.90;;;;;;5092744;28;20052;-81
2023/04/28 04:36:09;;;;;;;19.58;9.38;;;6.00;99.90;;;;;;5093983;28;20495;-81
2023/04/28 04:38:35;;;;;;;25.35;11.20;;;6.10;99.90;;;;;;5093954;28;20040;-81
2023/04/28 04:41:01;;;;;;;18.20;9.77;;;6.10;99.90;;;;;;5093884;28;20036;-81
2023/04/28 04:43:26;;;;;;;22.60;11.32;;;6.10;99.90;;;;;;5093597;28;20560;-81
2023/04/28 04:45:52;;;;;;;18.45;10.55;;;6.10;99.90;;;;;;5093766;28;20047;-81
2023/04/28 04:48:18;;;;;;;16.95;10.00;;;6.10;99.90;;;;;;5093861;28;20036;-81
2023/04/28 04:50:44;;;;;;;17.38;9.48;;;6.10;99.90;;;;;;5093851;28;20122;-81
2023/04/28 04:53:09;;;;;;;21.40;10.18;;;6.10;99.90;;;;;;5093413;28;20419;-81
2023/04/28 04:55:35;;;;;;;19.05;10.45;;;6.10;99.90;;;;;;5093577;28;20044;-81
2023/04/28 04:58:01;;;;;;;19.65;10.88;;;6.10;99.90;;;;;;5093525;28;20115;-82
2023/04/28 05:00:27;;;;;;;23.17;11.38;;;6.20;99.90;;;;;;5093875;28;20106;-81
2023/04/28 05:02:52;;;;;;;19.42;10.60;;;6.20;99.90;;;;;;5093693;28;20101;-81
2023/04/28 05:05:18;;;;;;;24.05;10.52;;;6.10;99.90;;;;;;5093585;28;20036;-81
2023/04/28 05:07:43;;;;;;;21.92;11.00;;;6.20;99.90;;;;;;5093542;28;20464;-81
2023/04/28 05:10:10;;;;;;;23.65;11.13;;;6.20;99.90;;;;;;5093604;28;20044;-81
2023/04/28 05:12:37;;;;;;;24.52;11.98;;;6.20;99.90;;;;;;5093506;28;20040;-81
2023/04/28 05:15:07;;;;;;;23.08;13.38;;;6.20;99.90;;;;;;5093289;28;20089;-81
2023/04/28 05:17:33;;;;;;;20.58;11.43;;;6.20;99.90;;;;;;5094225;28;20105;-81
2023/04/28 05:19:58;;;;;;;21.63;11.63;;;6.20;99.90;;;;;;5093390;28;20063;-81
2023/04/28 05:22:25;;;;;;;24.67;11.73;;;6.20;99.90;;;;;;5093514;28;20040;-81
2023/04/28 05:24:54;;;;;;;21.77;11.80;;;6.20;99.90;;;;;;5093233;28;20052;-81
2023/04/28 05:27:20;;;;;;;26.02;13.25;;;6.30;99.90;;;;;;5092185;28;20437;-81
2023/04/28 05:29:45;;;;;;;20.70;10.77;;;6.20;99.90;;;;;;5093174;28;20122;-81
2023/04/28 05:32:11;;;;;;;24.48;12.07;;;6.30;99.90;;;;;;5093184;28;20518;-81
2023/04/28 05:34:37;;;;;;;22.27;11.90;;;6.30;99.90;;;;;;5091922;28;20076;-81
2023/04/28 05:37:02;;;;;;;26.83;12.30;;;6.40;99.90;;;;;;5093362;28;20051;-82
2023/04/28 05:39:28;;;;;;;27.20;12.50;;;6.40;99.90;;;;;;5093373;28;20055;-81
2023/04/28 05:41:53;;;;;;;24.20;11.98;;;6.40;99.90;;;;;;5093311;28;20119;-81
2023/04/28 05:44:19;;;;;;;21.70;11.38;;;6.50;99.90;;;;;;5093292;28;20391;-81
2023/04/28 05:46:45;;;;;;;24.25;11.38;;;6.50;99.90;;;;;;5093274;28;20125;-81
2023/04/28 05:49:10;;;;;;;22.63;12.27;;;6.50;99.90;;;;;;5094058;28;20476;-81
2023/04/28 05:51:36;;;;;;;26.60;13.35;;;6.50;99.90;;;;;;5096926;28;20048;-81
2023/04/28 05:54:02;;;;;;;24.00;12.20;;;6.60;99.90;;;;;;5096887;28;20212;-82
2023/04/28 05:56:28;;;;;;;22.92;12.00;;;6.50;99.90;;;;;;5096724;28;20456;-81
2023/04/28 05:58:54;;;;;;;22.25;11.32;;;6.50;99.90;;;;;;5096891;28;20036;-82
2023/04/28 06:01:21;;;;;;;25.10;12.32;;;6.60;99.90;;;;;;5096543;28;20399;-81
2023/04/28 06:03:47;;;;;;;22.42;12.38;;;6.60;99.90;;;;;;5096759;28;20040;-81
2023/04/28 06:06:12;;;;;;;22.50;10.70;;;6.60;99.90;;;;;;5096803;28;20047;-81
2023/04/28 06:08:38;;;;;;;21.73;11.88;;;6.70;99.90;;;;;;5096797;28;20046;-81
2023/04/28 06:11:04;;;;;;;17.88;10.85;;;6.70;99.90;;;;;;5096656;28;20128;-81
2023/04/28 06:13:30;;;;;;;22.33;10.25;;;6.70;99.90;;;;;;5096581;28;20044;-81
2023/04/28 06:15:56;;;;;;;21.08;11.50;;;6.70;99.90;;;;;;5096645;28;20043;-83
2023/04/28 06:18:23;;;;;;;22.77;11.75;;;6.70;99.90;;;;;;5095314;28;20048;-81
2023/04/28 06:20:49;;;;;;;20.33;11.00;;;6.80;99.90;;;;;;5096539;28;20044;-81
2023/04/28 06:23:15;;;;;;;24.08;12.20;;;6.90;99.90;;;;;;5096237;28;20123;-81
2023/04/28 06:25:40;;;;;;;20.88;10.07;;;6.90;99.90;;;;;;5096341;28;20198;-81
2023/04/28 06:28:06;;;;;;;17.55;10.25;;;6.90;99.90;;;;;;5096320;28;20047;-81
2023/04/28 06:30:33;;;;;;;17.30;10.48;;;7.00;99.90;;;;;;5096266;28;20044;-80
2023/04/28 06:32:59;;;;;;;20.45;10.52;;;7.00;99.90;;;;;;5096040;28;20044;-80
2023/04/28 06:35:25;;;;;;;19.60;10.82;;;7.00;99.90;;;;;;5096072;28;20506;-80
2023/04/28 06:37:51;;;;;;;20.85;10.60;;;7.10;99.90;;;;;;5095993;28;20036;-80
2023/04/28 06:40:16;;;;;;;17.92;9.90;;;7.10;99.90;;;;;;5096124;28;20528;-80
2023/04/28 06:42:42;;;;;;;20.58;11.05;;;7.10;99.90;;;;;;5096072;28;20044;-80
2023/04/28 06:45:08;;;;;;;18.27;10.50;;;7.10;99.90;;;;;;5096025;28;20039;-83
2023/04/28 06:47:35;;;;;;;21.88;10.90;;;7.20;99.90;;;;;;5096006;28;20044;-80
2023/04/28 06:50:00;;;;;;;20.00;10.50;;;7.20;99.90;;;;;;5095992;28;20055;-80
2023/04/28 06:52:28;;;;;;;19.58;10.50;;;7.30;99.90;;;;;;5094409;28;20442;-80
2023/04/28 06:54:54;;;;;;;20.55;11.32;;;7.30;99.90;;;;;;5095724;28;20032;-81
2023/04/28 06:57:20;;;;;;;32.25;13.98;;;7.30;99.90;;;;;;5095833;28;20426;-81
2023/04/28 06:59:46;;;;;;;20.13;10.77;;;7.40;99.90;;;;;;5095737;28;20036;-80
2023/04/28 07:02:11;;;;;;;19.63;11.20;;;7.40;99.90;;;;;;5093176;28;20514;-85
2023/04/28 07:04:37;;;;;;;21.83;12.20;;;7.40;99.90;;;;;;5088396;28;20036;-79
2023/04/28 07:07:06;;;;;;;18.67;11.15;;;7.40;99.90;;;;;;5075724;28;20040;-79
2023/04/28 07:09:33;;;;;;;20.05;11.77;;;7.40;99.90;;;;;;5073577;28;20048;-79
2023/04/28 07:11:59;;;;;;;23.77;11.95;;;7.40;99.90;;;;;;5075036;28;20080;-80
2023/04/28 07:14:24;;;;;;;21.38;12.02;;;7.50;99.90;;;;;;5075041;28;20072;-78
2023/04/28 07:16:50;;;;;;;20.58;11.32;;;7.50;99.90;;;;;;5075141;28;20036;-80
2023/04/28 07:19:16;;;;;;;22.45;11.70;;;7.40;99.90;;;;;;5074664;28;20049;-83
2023/04/28 07:21:41;;;;;;;19.58;11.70;;;7.50;99.90;;;;;;5073776;28;20053;-81
2023/04/28 07:24:07;;;;;;;21.27;11.85;;;7.50;99.90;;;;;;5073097;28;20111;-82
2023/04/28 07:26:33;;;;;;;22.40;13.07;;;7.40;99.90;;;;;;5074884;28;20036;-83
2023/04/28 07:28:58;;;;;;;20.45;11.85;;;7.40;99.90;;;;;;5073397;28;20044;-81
2023/04/28 07:31:24;;;;;;;23.15;11.68;;;7.50;99.90;;;;;;5073102;28;20052;-81
2023/04/28 07:33:50;;;;;;;23.45;13.68;;;7.40;99.90;;;;;;5074451;28;20036;-81
2023/04/28 07:36:17;;;;;;;22.98;12.07;;;7.40;99.90;;;;;;5074400;28;20072;-79
2023/04/28 07:38:44;;;;;;;19.17;11.90;;;7.50;99.90;;;;;;5074485;28;20517;-80
2023/04/28 07:41:10;;;;;;;20.50;11.70;;;7.50;99.90;;;;;;5074378;28;20037;-79
2023/04/28 07:43:35;;;;;;;21.58;12.38;;;7.50;99.90;;;;;;5073025;28;20098;-80
2023/04/28 07:46:01;;;;;;;22.17;11.60;;;7.60;99.90;;;;;;5074402;28;20041;-79
2023/04/28 07:48:27;;;;;;;23.60;11.88;;;7.60;99.90;;;;;;5084808;28;20540;-81
2023/04/28 07:50:53;;;;;;;20.02;12.15;;;7.50;99.90;;;;;;5093322;28;20052;-81
2023/04/28 07:53:18;;;;;;;26.85;13.23;;;7.60;99.90;;;;;;5094207;28;20069;-83
2023/04/28 07:55:45;;;;;;;22.70;12.70;;;7.60;99.90;;;;;;5094155;28;20494;-83
2023/04/28 07:58:11;;;;;;;22.70;13.15;;;7.70;99.90;;;;;;5094243;28;20507;-82
2023/04/28 08:00:37;;;;;;;24.10;13.15;;;7.70;99.90;;;;;;5092951;28;20052;-80
2023/04/28 08:03:02;;;;;;;26.15;13.68;;;7.70;99.90;;;;;;5094001;28;20047;-82
2023/04/28 08:05:28;;;;;;;21.08;12.55;;;7.70;99.90;;;;;;5092817;28;20123;-82
2023/04/28 08:07:54;;;;;;;22.17;12.68;;;7.80;99.90;;;;;;5093954;28;20066;-82
2023/04/28 08:10:20;;;;;;;21.00;12.43;;;7.80;99.90;;;;;;5092995;28;20391;-81
2023/04/28 08:12:46;;;;;;;21.90;13.13;;;7.70;99.90;;;;;;5093843;28;20044;-81
2023/04/28 08:15:12;;;;;;;25.10;13.77;;;7.80;99.90;;;;;;5094141;28;20036;-81
2023/04/28 08:17:38;;;;;;;20.42;12.40;;;7.80;99.90;;;;;;5094123;28;20189;-82
2023/04/28 08:20:05;;;;;;;21.52;12.07;;;7.80;99.90;;;;;;5094163;28;20040;-82
2023/04/28 08:22:31;;;;;;;21.67;13.80;;;7.80;99.90;;;;;;5093880;28;20093;-82
2023/04/28 08:25:00;;;;;;;24.38;13.00;;;7.80;99.90;;;;;;5093635;28;20099;-83
2023/04/28 08:27:25;;;;;;;24.63;12.80;;;7.80;99.90;;;;;;5093940;28;20069;-82
2023/04/28 08:29:51;;;;;;;22.95;13.73;;;7.90;99.90;;;;;;5092758;28;20119;-83
2023/04/28 08:32:17;;;;;;;25.25;13.50;;;7.90;99.90;;;;;;5092398;28;20052;-82
2023/04/28 08:34:43;;;;;;;23.63;13.70;;;7.90;99.90;;;;;;5093529;28;20483;-82
2023/04/28 08:37:09;;;;;;;25.83;14.35;;;7.90;99.90;;;;;;5093866;28;20043;-83
2023/04/28 08:39:34;;;;;;;25.42;14.93;;;8.00;99.90;;;;;;5092572;28;20071;-82
2023/04/28 08:42:04;;;;;;;22.90;13.68;;;8.10;99.90;;;;;;5093456;28;20043;-82
2023/04/28 08:44:38;;;;;;;25.58;13.65;;;8.10;99.90;;;;;;5093575;28;20047;-81
2023/04/28 08:47:13;;;;;;;26.75;14.93;;;8.20;99.90;;;;;;5092209;28;20129;-81
2023/04/28 08:49:40;;;;;;;24.73;14.38;;;8.30;99.90;;;;;;5093688;28;20067;-82
2023/04/28 08:52:11;;;;;;;25.48;15.32;;;8.40;99.90;;;;;;5092281;28;20466;-82
2023/04/28 08:54:39;;;;;;;22.70;13.45;;;8.50;99.90;;;;;;5092359;28;20050;-81
2023/04/28 08:57:07;;;;;;;30.98;15.05;;;8.50;99.90;;;;;;5093615;28;20042;-81
2023/04/28 08:59:34;;;;;;;23.23;15.15;;;8.60;99.90;;;;;;5093536;28;20044;-82
2023/04/28 09:02:00;;;;;;;24.42;13.38;;;8.80;99.90;;;;;;5091977;28;20489;-81
2023/04/28 09:04:25;;;;;;;22.67;12.65;;;8.80;99.90;;;;;;5092024;28;20404;-81
2023/04/28 09:06:51;;;;;;;24.38;12.63;;;8.90;99.90;;;;;;5092024;28;20537;-81
2023/04/28 09:09:19;;;;;;;22.20;12.27;;;8.90;99.90;;;;;;5093440;28;20083;-81
2023/04/28 09:11:58;;;;;;;21.33;12.40;;;9.10;99.90;;;;;;5093328;28;20051;-81
2023/04/28 09:14:28;;;;;;;19.90;12.05;;;9.10;99.90;;;;;;5093379;28;20044;-82
2023/04/28 09:16:55;;;;;;;22.30;13.35;;;9.20;99.90;;;;;;5093419;28;20077;-82
2023/04/28 09:19:20;;;;;;;22.23;13.57;;;9.30;99.90;;;;;;5093118;28;20043;-82
2023/04/28 09:21:56;;;;;;;20.50;13.52;;;9.40;99.90;;;;;;5093006;28;20036;-83
2023/04/28 09:24:39;;;;;;;20.45;12.40;;;9.50;99.90;;;;;;5094198;28;20048;-82
2023/04/28 09:27:10;;;;;;;19.35;13.10;;;9.70;99.90;;;;;;5097372;28;20070;-82
2023/04/28 09:29:37;;;;;;;23.30;12.98;;;9.70;99.90;;;;;;5097362;28;20032;-80
2023/04/28 09:32:17;;;;;;;21.02;12.88;;;9.90;99.90;;;;;;5097276;28;20044;-80
2023/04/28 09:34:52;;;;;;;19.77;12.95;;;10.00;99.90;;;;;;5095812;28;20048;-80
2023/04/28 09:37:22;;;;;;;20.38;12.27;;;10.00;99.90;;;;;;5096984;28;20043;-84
2023/04/28 09:39:52;;;;;;;22.25;13.45;;;10.10;99.90;;;;;;5097434;28;20051;-81
2023/04/28 09:42:38;;;;;;;19.27;12.93;;;10.20;99.90;;;;;;5097012;28;20044;-82
2023/04/28 09:45:07;;;;;;;18.65;11.80;;;10.20;99.90;;;;;;5095540;28;20368;-83
2023/04/28 09:47:34;;;;;;;25.15;12.95;;;10.30;99.90;;;;;;5096850;28;20044;-82
2023/04/28 09:50:05;;;;;;;19.30;12.77;;;10.30;99.90;;;;;;5096599;28;20040;-82
2023/04/28 09:52:36;;;;;;;20.38;12.30;;;10.50;99.90;;;;;;5096591;28;20079;-80
2023/04/28 09:55:04;;;;;;;20.60;12.20;;;10.50;99.90;;;;;;5096900;28;20434;-82
2023/04/28 09:57:31;;;;;;;21.33;13.13;;;10.60;99.90;;;;;;5095501;28;20404;-81
2023/04/28 09:59:58;;;;;;;23.63;14.15;;;10.70;99.90;;;;;;5096798;28;20131;-81
2023/04/28 10:02:25;;;;;;;19.02;12.57;;;10.90;99.90;;;;;;5096347;28;20102;-82
2023/04/28 10:04:50;;;;;;;23.92;14.23;;;10.90;99.90;;;;;;5096658;28;20041;-82
2023/04/28 10:07:19;;;;;;;19.70;14.13;;;10.80;99.90;;;;;;5096702;28;20040;-81
2023/04/28 10:09:49;;;;;;;21.23;13.90;;;10.80;99.90;;;;;;5095040;28;20483;-81
2023/04/28 10:12:20;;;;;;;18.20;12.35;;;10.80;99.90;;;;;;5096257;28;20115;-83
2023/04/28 10:14:49;;;;;;;22.92;14.85;;;10.90;99.90;;;;;;5096492;28;20071;-81
2023/04/28 10:17:15;;;;;;;21.13;12.52;;;11.10;99.90;;;;;;5095169;28;20506;-82
2023/04/28 10:19:43;;;;;;;19.98;13.35;;;11.10;99.90;;;;;;5096291;28;20040;-82
2023/04/28 10:22:50;;;;;;;25.25;15.05;;;11.00;99.90;;;;;;5094899;28;20052;-81
2023/04/28 10:25:27;;;;;;;23.42;14.13;;;10.90;99.90;;;;;;5096261;28;20044;-82
2023/04/28 10:27:54;;;;;;;22.23;14.30;;;11.00;99.90;;;;;;5094755;28;20085;-82
2023/04/28 10:30:22;;;;;;;19.90;13.30;;;10.90;99.90;;;;;;5095932;28;20048;-83
2023/04/28 10:33:10;;;;;;;21.40;14.18;;;11.00;99.90;;;;;;5094648;28;20052;-83
2023/04/28 10:35:43;;;;;;;21.20;13.80;;;11.00;99.90;;;;;;5094468;28;20076;-81
2023/04/28 10:38:17;;;;;;;23.00;14.82;;;11.00;99.90;;;;;;5096099;28;20059;-82
2023/04/28 10:40:47;;;;;;;21.77;13.23;;;11.00;99.90;;;;;;5096002;28;20094;-83
2023/04/28 10:43:38;;;;;;;24.13;13.85;;;11.00;99.90;;;;;;5094786;28;20043;-81
2023/04/28 10:46:07;;;;;;;22.75;14.52;;;11.00;99.90;;;;;;5095923;28;20041;-80
2023/04/28 10:48:32;;;;;;;26.98;15.02;;;10.90;99.90;;;;;;5094292;28;20044;-81
2023/04/28 10:53:44;;;;;;;21.42;13.52;;;10.70;99.90;;;;;;5095555;28;20101;-80
2023/04/28 10:56:11;;;;;;;25.13;14.75;;;10.70;99.90;;;;;;5095784;28;20051;-86
2023/04/28 10:58:41;;;;;;;21.02;14.32;;;10.60;99.90;;;;;;5094110;28;20652;-83
2023/04/28 11:01:28;;;;;;;27.83;17.52;;;10.60;99.90;;;;;;5095637;28;20356;-81
2023/04/28 11:04:12;;;;;;;33.58;20.95;;;10.50;99.90;;;;;;5095165;28;20413;-82
2023/04/28 11:06:40;;;;;;;30.02;20.85;;;10.50;99.90;;;;;;5095235;28;20482;-84
2023/04/28 11:09:12;;;;;;;30.73;20.15;;;10.40;99.90;;;;;;5095088;28;20089;-81
2023/04/28 11:11:39;;;;;;;33.17;21.15;;;10.30;99.90;;;;;;5095260;28;20105;-83
2023/04/28 11:14:19;;;;;;;25.80;18.35;;;10.30;99.90;;;;;;5095279;28;20044;-82
2023/04/28 11:16:58;;;;;;;28.98;17.58;;;10.30;99.90;;;;;;5094957;28;20421;-81
2023/04/28 11:19:29;;;;;;;26.58;17.58;;;10.30;99.90;;;;;;5093880;28;20040;-82
2023/04/28 11:21:57;;;;;;;30.33;18.35;;;10.20;99.90;;;;;;5093623;28;20036;-82
2023/04/28 11:24:30;;;;;;;28.88;18.10;;;10.30;99.90;;;;;;5094764;28;20505;-81
2023/04/28 11:26:58;;;;;;;30.80;17.95;;;10.30;99.90;;;;;;5094810;28;20441;-83
2023/04/28 11:29:37;;;;;;;30.52;18.60;;;10.30;99.90;;;;;;5095009;28;20048;-84
2023/04/28 11:32:08;;;;;;;28.55;17.23;;;10.20;99.90;;;;;;5094606;28;20040;-83
2023/04/28 11:34:35;;;;;;;28.58;18.38;;;10.30;99.90;;;;;;5094899;28;20048;-84
2023/04/28 11:37:01;;;;;;;28.70;19.02;;;10.20;99.90;;;;;;5094933;28;20044;-83
2023/04/28 11:39:29;;;;;;;31.25;19.88;;;10.20;99.90;;;;;;5094695;28;20055;-82
2023/04/28 11:41:55;;;;;;;31.88;19.75;;;10.20;99.90;;;;;;5093261;28;20055;-80
2023/04/28 11:44:23;;;;;;;30.08;18.73;;;10.10;99.90;;;;;;5094464;28;20058;-81
2023/04/28 11:46:54;;;;;;;25.95;18.63;;;10.00;99.90;;;;;;5093996;28;20051;-83
2023/04/28 11:49:23;;;;;;;29.83;18.27;;;10.00;99.90;;;;;;5093052;28;20043;-83
2023/04/28 11:51:53;;;;;;;28.90;19.17;;;9.90;99.90;;;;;;5094164;28;20441;-82
2023/04/28 11:54:21;;;;;;;30.38;19.92;;;9.90;99.90;;;;;;5094246;28;20486;-82
2023/04/28 11:56:47;;;;;;;30.40;19.90;;;9.90;99.90;;;;;;5092941;28;20131;-82
2023/04/28 11:59:13;;;;;;;32.67;20.25;;;9.90;99.90;;;;;;5094184;28;20052;-82
2023/04/28 12:01:48;;;;;;;35.95;21.17;;;10.00;99.90;;;;;;5094507;28;20051;-82
2023/04/28 12:04:30;;;;;;;32.63;20.70;;;10.00;99.90;;;;;;5094361;28;20101;-83
2023/04/28 12:07:13;;;;;;;30.30;19.42;;;10.00;99.90;;;;;;5094368;28;20043;-83
2023/04/28 12:09:40;;;;;;;38.90;19.27;;;10.00;99.90;;;;;;5094263;28;20067;-82
2023/04/28 12:12:13;;;;;;;28.40;19.65;;;9.90;99.90;;;;;;5094121;28;20479;-82
2023/04/28 12:15:00;;;;;;;29.40;19.92;;;9.90;99.90;;;;;;5092682;28;20084;-81
2023/04/28 12:17:47;;;;;;;32.30;20.75;;;9.70;99.90;;;;;;5094023;28;20043;-81
2023/04/28 12:20:34;;;;;;;30.08;21.13;;;9.80;99.90;;;;;;5094100;28;20036;-82
2023/04/28 12:22:59;;;;;;;34.08;20.60;;;9.80;99.90;;;;;;5093985;28;20059;-82
2023/04/28 12:25:25;;;;;;;33.78;21.80;;;9.80;99.90;;;;;;5093830;28;20048;-82
2023/04/28 12:28:02;;;;;;;30.73;19.85;;;9.80;99.90;;;;;;5093659;28;20048;-83
2023/04/28 12:30:29;;;;;;;31.13;21.25;;;9.90;99.90;;;;;;5093650;28;20044;-83
2023/04/28 12:32:55;;;;;;;34.58;21.42;;;9.90;99.90;;;;;;5093764;28;20044;-83
2023/04/28 12:35:22;;;;;;;34.47;22.90;;;10.00;99.90;;;;;;5093835;28;20051;-81
2023/04/28 12:37:48;;;;;;;35.28;23.88;;;10.00;99.90;;;;;;5093914;28;20055;-81
2023/04/28 12:40:13;;;;;;;33.85;24.00;;;10.00;99.90;;;;;;5093727;28;20036;-82
2023/04/28 12:42:39;;;;;;;32.17;21.20;;;10.10;99.90;;;;;;5093491;28;20520;-85